createdAt,value
2023-05-19T00:00:20.624Z,78.1
2023-05-19T00:01:34.920Z,78
2023-05-19T00:02:49.189Z,78.1
2023-05-19T00:04:03.596Z,77.9
2023-05-19T00:05:17.930Z,77.8
2023-05-19T00:06:32.200Z,78
2023-05-19T00:07:46.489Z,78.1
2023-05-19T00:09:00.899Z,78.1
2023-05-19T00:10:15.210Z,77.9
2023-05-19T00:11:29.507Z,77.9
2023-05-19T00:12:43.787Z,78.1
2023-05-19T00:13:58.182Z,78.9
2023-05-19T00:15:12.504Z,79.1
2023-05-19T00:16:26.780Z,79
2023-05-19T00:17:41.184Z,78.8
2023-05-19T00:18:55.600Z,78.6
2023-05-19T00:20:09.916Z,78.3
2023-05-19T00:21:24.201Z,78.3
2023-05-19T00:22:38.474Z,78.3
2023-05-19T00:23:52.888Z,78.5
2023-05-19T00:25:07.216Z,78.3
2023-05-19T00:26:21.497Z,78.5
2023-05-19T00:27:35.774Z,78.7
2023-05-19T00:28:50.184Z,78.4
2023-05-19T00:30:04.516Z,78.4
2023-05-19T00:31:18.793Z,78.6
2023-05-19T00:32:33.068Z,78.9
2023-05-19T00:33:47.485Z,79.3
2023-05-19T00:35:01.795Z,79.5
2023-05-19T00:36:16.088Z,79.9
2023-05-19T00:37:30.367Z,79.9
2023-05-19T00:38:44.771Z,79.9
2023-05-19T00:39:59.090Z,80.1
2023-05-19T00:41:13.365Z,80.2
2023-05-19T00:42:27.657Z,80.3
2023-05-19T00:43:42.057Z,80.3
2023-05-19T00:44:56.383Z,80.2
2023-05-19T00:46:10.665Z,80.5
2023-05-19T00:47:25.062Z,80.5
2023-05-19T00:48:39.473Z,80.6
2023-05-19T00:49:53.805Z,81
2023-05-19T00:51:08.078Z,81.3
2023-05-19T00:52:22.360Z,81.5
2023-05-19T00:53:36.764Z,81.5
2023-05-19T00:54:51.087Z,81.2
2023-05-19T00:56:05.372Z,81.1
2023-05-19T00:57:19.641Z,81
2023-05-19T00:58:34.056Z,80.9
2023-05-19T00:59:48.391Z,80.7
2023-05-19T01:01:02.660Z,81.1
2023-05-19T01:02:16.952Z,81.5
2023-05-19T01:03:31.355Z,81.7
2023-05-19T01:04:45.664Z,81.9
2023-05-19T01:05:59.953Z,82
2023-05-19T01:07:14.351Z,82.3
2023-05-19T01:08:28.773Z,82.4
2023-05-19T01:09:43.096Z,82.7
2023-05-19T01:10:57.373Z,83
2023-05-19T01:12:11.650Z,83
2023-05-19T01:13:26.054Z,83
2023-05-19T01:14:40.379Z,83.2
2023-05-19T01:15:54.667Z,83.4
2023-05-19T01:17:08.942Z,83.4
2023-05-19T01:18:23.345Z,83.6
2023-05-19T01:19:37.663Z,83.7
2023-05-19T01:20:51.956Z,84.3
2023-05-19T01:22:06.229Z,84.7
2023-05-19T01:23:20.636Z,84.9
2023-05-19T01:24:34.960Z,85.2
2023-05-19T01:25:49.235Z,85.5
2023-05-19T01:27:03.516Z,85.9
2023-05-19T01:28:17.936Z,86.2
2023-05-19T01:29:32.247Z,86.2
2023-05-19T01:30:46.545Z,86.2
2023-05-19T01:32:00.942Z,86.3
2023-05-19T01:33:15.353Z,86.2
2023-05-19T01:34:29.665Z,86
2023-05-19T01:35:43.944Z,85.6
2023-05-19T01:36:58.222Z,85.5
2023-05-19T01:38:12.635Z,85.3
2023-05-19T01:39:26.957Z,85.3
2023-05-19T01:40:41.252Z,85.2
2023-05-19T01:41:55.517Z,85.2
2023-05-19T01:43:09.933Z,85.3
2023-05-19T01:44:24.257Z,85.7
2023-05-19T01:45:38.536Z,86.2
2023-05-19T01:46:52.811Z,86
2023-05-19T01:48:07.220Z,85.9
2023-05-19T01:49:21.556Z,86.2
2023-05-19T01:50:35.951Z,86
2023-05-19T01:51:50.277Z,86.2
2023-05-19T01:53:04.551Z,86.2
2023-05-19T01:54:18.968Z,86.2
2023-05-19T01:55:33.296Z,86.4
2023-05-19T01:56:47.569Z,86.5
2023-05-19T01:58:01.839Z,86.6
2023-05-19T01:59:16.263Z,86.6
2023-05-19T02:00:30.586Z,87
2023-05-19T02:01:44.861Z,87.5
2023-05-19T02:02:59.132Z,87.5
2023-05-19T02:04:13.540Z,87.5
2023-05-19T02:05:27.876Z,87.5
2023-05-19T02:06:42.157Z,87.5
2023-05-19T02:07:56.436Z,87.7
2023-05-19T02:09:10.844Z,88.5
2023-05-19T02:10:25.171Z,88.9
2023-05-19T02:11:39.451Z,89.4
2023-05-19T02:12:53.732Z,89.5
2023-05-19T02:14:08.135Z,89.6
2023-05-19T02:15:22.453Z,89.5
2023-05-19T02:16:36.869Z,89.7
2023-05-19T02:17:51.184Z,89.7
2023-05-19T02:19:05.458Z,89.5
2023-05-19T02:20:19.870Z,89.5
2023-05-19T02:21:34.204Z,89.3
2023-05-19T02:22:48.481Z,89.4
2023-05-19T02:24:02.749Z,89.5
2023-05-19T02:25:17.163Z,89.5
2023-05-19T02:26:31.481Z,89.6
2023-05-19T02:27:45.771Z,89.8
2023-05-19T02:29:00.044Z,89.7
2023-05-19T02:30:14.454Z,89.7
2023-05-19T02:31:28.788Z,89.6
2023-05-19T02:32:43.073Z,89.4
2023-05-19T02:33:57.349Z,89.2
2023-05-19T02:35:11.751Z,89.2
2023-05-19T02:36:26.086Z,89.2
2023-05-19T02:37:40.357Z,89.2
2023-05-19T02:38:54.707Z,89.3
2023-05-19T02:40:09.122Z,89.5
2023-05-19T02:41:23.434Z,89.5
2023-05-19T02:42:37.725Z,89.2
2023-05-19T02:43:51.998Z,89.1
2023-05-19T02:45:06.411Z,88.9
2023-05-19T02:46:20.657Z,88.8
2023-05-19T02:47:34.876Z,88.9
2023-05-19T02:48:49.108Z,88.6
2023-05-19T02:50:03.335Z,88.5
2023-05-19T02:51:17.635Z,88.4
2023-05-19T02:52:31.950Z,88.2
2023-05-19T02:53:46.185Z,87.9
2023-05-19T02:55:00.417Z,87.8
2023-05-19T02:56:14.642Z,87.6
2023-05-19T02:57:28.942Z,88.1
2023-05-19T02:58:43.181Z,88.2
2023-05-19T02:59:57.414Z,88.2
2023-05-19T03:01:11.635Z,88.8
2023-05-19T03:02:25.849Z,89.3
2023-05-19T03:03:40.154Z,89.7
2023-05-19T03:04:54.402Z,90
2023-05-19T03:06:08.633Z,90.3
2023-05-19T03:07:22.856Z,90.7
2023-05-19T03:08:37.209Z,91
2023-05-19T03:09:51.495Z,91
2023-05-19T03:11:05.746Z,90.8
2023-05-19T03:12:19.979Z,90.6
2023-05-19T03:13:34.205Z,90.4
2023-05-19T03:14:48.418Z,90.3
2023-05-19T03:16:02.733Z,90.3
2023-05-19T03:17:16.959Z,90
2023-05-19T03:18:31.195Z,89.7
2023-05-19T03:19:45.409Z,89.3
2023-05-19T03:20:59.654Z,89.1
2023-05-19T03:22:13.953Z,89
2023-05-19T03:23:28.186Z,89
2023-05-19T03:24:42.412Z,88.9
2023-05-19T03:25:56.631Z,88.8
2023-05-19T03:27:10.862Z,89
2023-05-19T03:28:25.166Z,89
2023-05-19T03:29:39.400Z,89.2
2023-05-19T03:30:53.640Z,89.1
2023-05-19T03:32:07.859Z,88.8
2023-05-19T03:33:22.078Z,88.9
2023-05-19T03:34:36.385Z,89.2
2023-05-19T03:35:50.628Z,89.4
2023-05-19T03:37:04.847Z,89.8
2023-05-19T03:38:19.077Z,90.3
2023-05-19T03:39:33.301Z,90.7
2023-05-19T03:40:47.600Z,90.9
2023-05-19T03:42:01.847Z,90.9
2023-05-19T03:43:16.198Z,90.9
2023-05-19T03:44:30.431Z,91
2023-05-19T03:45:44.652Z,91.2
2023-05-19T03:46:58.954Z,91.5
2023-05-19T03:48:13.203Z,91.3
2023-05-19T03:49:27.416Z,91.1
2023-05-19T03:50:41.644Z,90.8
2023-05-19T03:51:55.886Z,90.5
2023-05-19T03:53:10.174Z,90.1
2023-05-19T03:54:24.420Z,89.8
2023-05-19T03:55:38.653Z,89.5
2023-05-19T03:56:52.880Z,89.5
2023-05-19T03:58:07.103Z,89.4
2023-05-19T03:59:21.402Z,89.4
2023-05-19T04:00:35.644Z,89.3
2023-05-19T04:01:49.860Z,89.3
2023-05-19T04:03:04.223Z,89
2023-05-19T04:04:18.435Z,88.8
2023-05-19T04:05:32.745Z,88.9
2023-05-19T04:06:46.994Z,88.8
2023-05-19T04:08:01.220Z,88.5
2023-05-19T04:09:15.435Z,88.1
2023-05-19T04:10:29.670Z,87.8
2023-05-19T04:11:43.961Z,88
2023-05-19T04:12:58.216Z,88.1
2023-05-19T04:14:12.424Z,88.2
2023-05-19T04:15:26.663Z,88.2
2023-05-19T04:16:40.890Z,88.3
2023-05-19T04:17:55.195Z,88.2
2023-05-19T04:19:09.437Z,88.3
2023-05-19T04:20:23.648Z,88.3
2023-05-19T04:21:37.890Z,88.4
2023-05-19T04:22:52.102Z,88.6
2023-05-19T04:24:06.411Z,88.3
2023-05-19T04:25:20.658Z,88
2023-05-19T04:26:34.882Z,87.8
2023-05-19T04:27:49.095Z,87.6
2023-05-19T04:29:03.323Z,88.1
2023-05-19T04:30:17.632Z,88
2023-05-19T04:31:31.870Z,88
2023-05-19T04:32:46.101Z,87.8
2023-05-19T04:34:00.322Z,87.8
2023-05-19T04:35:14.679Z,87.7
2023-05-19T04:36:28.967Z,87.5
2023-05-19T04:37:43.210Z,87.2
2023-05-19T04:38:57.440Z,87
2023-05-19T04:40:11.666Z,87.2
2023-05-19T04:41:25.906Z,87.2
2023-05-19T04:42:40.209Z,87.2
2023-05-19T04:43:54.444Z,87
2023-05-19T04:45:08.668Z,86.5
2023-05-19T04:46:22.895Z,86.3
2023-05-19T04:47:37.116Z,86.3
2023-05-19T04:48:51.418Z,85.7
2023-05-19T04:50:05.656Z,85.6
2023-05-19T04:51:19.891Z,85.2
2023-05-19T04:52:34.107Z,85.2
2023-05-19T04:53:48.347Z,85.2
2023-05-19T04:55:02.646Z,85.3
2023-05-19T04:56:16.885Z,84.8
2023-05-19T04:57:31.107Z,84.8
2023-05-19T04:58:45.338Z,84.8
2023-05-19T04:59:59.571Z,84.3
2023-05-19T05:01:13.875Z,84
2023-05-19T05:02:28.097Z,83.7
2023-05-19T05:03:42.335Z,83
2023-05-19T05:04:56.684Z,82.7
2023-05-19T05:06:10.905Z,82.8
2023-05-19T05:07:25.218Z,82.6
2023-05-19T05:08:39.459Z,82.2
2023-05-19T05:09:53.672Z,81.5
2023-05-19T05:11:07.913Z,81.2
2023-05-19T05:12:22.134Z,81.3
2023-05-19T05:13:36.423Z,81.2
2023-05-19T05:14:50.681Z,81.2
2023-05-19T05:16:04.903Z,80.5
2023-05-19T05:17:19.133Z,80
2023-05-19T05:18:33.350Z,79.8
2023-05-19T05:19:47.656Z,79.2
2023-05-19T05:21:01.891Z,79.4
2023-05-19T05:22:16.237Z,79
2023-05-19T05:23:30.464Z,79.1
2023-05-19T05:24:44.697Z,79
2023-05-19T05:25:58.987Z,78.7
2023-05-19T05:27:13.247Z,78.9
2023-05-19T05:28:27.465Z,78.3
2023-05-19T05:29:41.690Z,77
2023-05-19T05:30:55.911Z,76.2
2023-05-19T05:32:10.208Z,74.8
2023-05-19T05:33:24.457Z,74.7
2023-05-19T05:34:38.687Z,74.3
2023-05-19T05:35:52.914Z,73.4
2023-05-19T05:37:07.148Z,73.8
2023-05-19T05:38:21.445Z,74
2023-05-19T05:39:35.684Z,74.2
2023-05-19T05:40:49.914Z,73.8
2023-05-19T05:42:04.140Z,73.3
2023-05-19T05:43:18.361Z,73.5
2023-05-19T05:44:32.656Z,73.5
2023-05-19T05:45:46.907Z,73
2023-05-19T05:47:01.120Z,72.7
2023-05-19T05:48:15.363Z,72.8
2023-05-19T05:50:44.004Z,71.6
2023-05-19T05:51:58.253Z,71.2
2023-05-19T05:53:12.475Z,71
2023-05-19T05:54:26.705Z,71.8
2023-05-19T05:55:40.931Z,72.1
2023-05-19T05:56:55.230Z,71.9
2023-05-19T05:58:09.475Z,71.5
2023-05-19T05:59:23.692Z,70.7
2023-05-19T06:00:37.926Z,71.4
2023-05-19T06:01:52.147Z,71.4
2023-05-19T06:03:06.450Z,70.8
2023-05-19T06:04:20.700Z,70.6
2023-05-19T06:05:34.925Z,70.7
2023-05-19T06:06:49.265Z,70.3
2023-05-19T06:08:03.485Z,70.2
2023-05-19T06:09:17.795Z,70.1
2023-05-19T06:10:32.024Z,69
2023-05-19T06:11:46.251Z,68.6
2023-05-19T06:13:00.481Z,68.5
2023-05-19T06:14:14.703Z,67.6
2023-05-19T06:15:29.020Z,67.3
2023-05-19T06:16:43.251Z,67.6
2023-05-19T06:17:57.478Z,66.7
2023-05-19T06:19:11.716Z,66
2023-05-19T06:20:25.936Z,65.9
2023-05-19T06:21:40.243Z,64.7
2023-05-19T06:22:54.470Z,64.3
2023-05-19T06:24:08.833Z,64.1
2023-05-19T06:25:23.000Z,64.6
2023-05-19T06:26:37.285Z,63.7
2023-05-19T06:27:51.585Z,62.8
2023-05-19T06:29:05.819Z,62.4
2023-05-19T06:30:20.051Z,61.6
2023-05-19T06:31:34.274Z,61.5
2023-05-19T06:32:48.494Z,60.6
2023-05-19T06:34:02.793Z,61.2
2023-05-19T06:35:17.045Z,59.7
2023-05-19T06:36:31.265Z,59.9
2023-05-19T06:37:45.496Z,59.2
2023-05-19T06:38:59.708Z,58.4
2023-05-19T06:40:14.012Z,57.8
2023-05-19T06:41:28.262Z,58.9
2023-05-19T06:43:56.703Z,57.3
2023-05-19T06:45:10.939Z,56.6
2023-05-19T06:46:25.242Z,56.8
2023-05-19T06:47:39.489Z,53.3
2023-05-19T06:48:53.716Z,54.6
2023-05-19T06:50:07.930Z,54.4
2023-05-19T06:51:22.162Z,53.1
2023-05-19T06:52:36.465Z,53.3
2023-05-19T06:53:50.696Z,52.3
2023-05-19T06:55:04.925Z,53.5
2023-05-19T06:56:19.153Z,53.7
2023-05-19T06:57:33.502Z,52.9
2023-05-19T06:58:47.806Z,52.6
2023-05-19T07:00:02.036Z,52
2023-05-19T07:01:16.271Z,52.9
2023-05-19T07:02:30.490Z,51.8
2023-05-19T07:03:44.725Z,52.2
2023-05-19T07:04:59.016Z,52.5
2023-05-19T07:06:13.256Z,52.7
2023-05-19T07:07:27.486Z,52.7
2023-05-19T07:08:41.728Z,53.9
2023-05-19T07:09:55.935Z,54.5
2023-05-19T07:11:10.243Z,54
2023-05-19T07:12:24.481Z,52.4
2023-05-19T07:13:38.723Z,51.9
2023-05-19T07:14:52.931Z,53
2023-05-19T07:16:07.159Z,52.7
2023-05-19T07:17:21.462Z,53.5
2023-05-19T07:18:35.714Z,54.4
2023-05-19T07:19:49.932Z,53.6
2023-05-19T07:21:04.170Z,52.9
2023-05-19T07:22:18.381Z,54.3
2023-05-19T07:23:32.678Z,53
2023-05-19T07:24:46.929Z,53.1
2023-05-19T07:26:01.156Z,52.8
2023-05-19T07:27:15.382Z,53.4
2023-05-19T07:28:29.612Z,52.9
2023-05-19T07:29:43.916Z,53
2023-05-19T07:30:58.141Z,52.4
2023-05-19T07:32:12.373Z,52.3
2023-05-19T07:33:26.606Z,52.7
2023-05-19T07:34:40.837Z,52.1
2023-05-19T07:35:55.140Z,51.5
2023-05-19T07:37:09.376Z,51.7
2023-05-19T07:38:23.601Z,50.3
2023-05-19T07:39:37.814Z,49.3
2023-05-19T07:40:52.042Z,49.5
2023-05-19T07:42:06.341Z,48.7
2023-05-19T07:43:20.639Z,50
2023-05-19T07:44:34.941Z,48.3
2023-05-19T07:45:48.222Z,48.3
2023-05-19T07:47:02.534Z,50
2023-05-19T07:48:16.776Z,49.6
2023-05-19T07:49:30.989Z,47.7
2023-05-19T07:50:45.230Z,48.3
2023-05-19T07:51:59.455Z,48.8
2023-05-19T07:53:13.742Z,48.8
2023-05-19T07:54:28.000Z,49.6
2023-05-19T07:55:42.216Z,48.4
2023-05-19T07:56:56.435Z,47.7
2023-05-19T07:58:10.670Z,47.2
2023-05-19T07:59:24.974Z,49.2
2023-05-19T08:00:39.206Z,46.5
2023-05-19T08:01:53.439Z,49
2023-05-19T08:03:07.668Z,47.1
2023-05-19T08:04:21.889Z,49
2023-05-19T08:05:36.183Z,47.7
2023-05-19T08:06:50.436Z,48.7
2023-05-19T08:08:04.659Z,47.7
2023-05-19T08:09:18.885Z,47.6
2023-05-19T08:10:33.116Z,46.2
2023-05-19T08:11:47.407Z,45
2023-05-19T08:13:01.644Z,47.6
2023-05-19T08:14:15.884Z,45.5
2023-05-19T08:15:30.114Z,43.7
2023-05-19T08:16:44.399Z,46.7
2023-05-19T08:17:58.691Z,47.5
2023-05-19T08:19:12.979Z,48.7
2023-05-19T08:20:26.273Z,46.2
2023-05-19T08:21:40.503Z,44.6
2023-05-19T08:22:54.790Z,46.1
2023-05-19T08:24:09.028Z,45.8
2023-05-19T08:25:23.267Z,44.5
2023-05-19T08:26:37.489Z,42
2023-05-19T08:27:51.712Z,41.4
2023-05-19T08:29:06.014Z,37.5
2023-05-19T08:30:20.255Z,39
2023-05-19T08:31:34.490Z,36.2
2023-05-19T08:32:48.703Z,35.2
2023-05-19T08:34:02.925Z,36.5
2023-05-19T08:35:17.243Z,35.8
2023-05-19T08:36:31.473Z,40.2
2023-05-19T08:37:45.714Z,37.3
2023-05-19T08:38:59.938Z,37.9
2023-05-19T08:40:14.148Z,37.3
2023-05-19T08:41:28.449Z,38.5
2023-05-19T08:42:42.696Z,39
2023-05-19T08:43:56.924Z,38.1
2023-05-19T08:45:11.159Z,37.5
2023-05-19T08:46:25.376Z,36.7
2023-05-19T08:47:39.000Z,35.5
2023-05-19T08:48:53.930Z,36.2
2023-05-19T08:50:08.149Z,34.2
2023-05-19T08:51:22.428Z,34.7
2023-05-19T08:52:35.765Z,34.6
2023-05-19T08:53:50.057Z,36.4
2023-05-19T08:55:03.347Z,36.7
2023-05-19T08:56:17.583Z,38.5
2023-05-19T08:57:31.883Z,37.8
2023-05-19T08:58:46.117Z,36.3
2023-05-19T09:00:00.336Z,36.8
2023-05-19T09:01:14.570Z,36.2
2023-05-19T09:02:28.806Z,34.1
2023-05-19T09:03:43.097Z,34.4
2023-05-19T09:04:57.332Z,38.1
2023-05-19T09:06:11.560Z,41.3
2023-05-19T09:07:25.787Z,41.2
2023-05-19T09:08:40.018Z,41.5
2023-05-19T09:09:54.314Z,42
2023-05-19T09:11:08.562Z,41.4
2023-05-19T09:12:22.786Z,43.1
2023-05-19T09:13:37.023Z,41.5
2023-05-19T09:14:51.242Z,44.3
2023-05-19T09:16:05.538Z,41
2023-05-19T09:17:19.775Z,38.5
2023-05-19T09:18:34.018Z,38.6
2023-05-19T09:19:48.236Z,36.8
2023-05-19T09:21:02.455Z,36.6
2023-05-19T09:22:16.765Z,36.3
2023-05-19T09:23:31.003Z,35.5
2023-05-19T09:24:45.240Z,35.4
2023-05-19T09:25:59.517Z,36.3
2023-05-19T09:27:12.823Z,33.5
2023-05-19T09:28:27.054Z,34.6
2023-05-19T09:29:41.275Z,34.1
2023-05-19T09:30:55.509Z,33.4
2023-05-19T09:32:09.741Z,34.4
2023-05-19T09:33:24.047Z,34.8
2023-05-19T09:34:38.278Z,33.8
2023-05-19T09:35:52.507Z,34.1
2023-05-19T09:37:06.735Z,33.1
2023-05-19T09:38:20.955Z,32
2023-05-19T09:39:35.253Z,34
2023-05-19T09:40:49.510Z,33
2023-05-19T09:42:03.733Z,36.2
2023-05-19T09:44:32.185Z,32.7
2023-05-19T09:45:46.496Z,32.3
2023-05-19T09:47:00.734Z,32
2023-05-19T09:48:14.953Z,33.6
2023-05-19T09:49:29.185Z,34.8
2023-05-19T09:50:43.403Z,33
2023-05-19T09:51:57.714Z,36.2
2023-05-19T09:53:11.943Z,33.2
2023-05-19T09:54:26.180Z,32.8
2023-05-19T09:55:40.414Z,35.4
2023-05-19T09:56:54.623Z,34.7
2023-05-19T09:58:08.989Z,32.3
2023-05-19T09:59:23.287Z,34.5
2023-05-19T10:00:37.569Z,35.4
2023-05-19T10:01:50.864Z,36.9
2023-05-19T10:03:05.152Z,38.2
2023-05-19T10:04:19.406Z,40.6
2023-05-19T10:05:33.619Z,38.8
2023-05-19T10:09:16.392Z,39.2
2023-05-19T10:10:30.625Z,39.8
2023-05-19T10:11:44.842Z,37.8
2023-05-19T10:12:59.082Z,39.2
2023-05-19T10:14:13.300Z,39.7
2023-05-19T10:15:27.599Z,37.5
2023-05-19T10:16:41.837Z,37.4
2023-05-19T10:17:56.077Z,36.7
2023-05-19T10:19:10.291Z,34.4
2023-05-19T10:20:24.530Z,36.1
2023-05-19T10:21:38.825Z,36.2
2023-05-19T10:22:53.075Z,34.4
2023-05-19T10:24:07.293Z,36.1
2023-05-19T10:25:21.527Z,34.8
2023-05-19T10:26:35.746Z,34.6
2023-05-19T10:27:50.045Z,35.6
2023-05-19T10:29:04.286Z,34.6
2023-05-19T10:30:18.518Z,34.6
2023-05-19T10:31:32.744Z,33.3
2023-05-19T10:32:47.037Z,38.1
2023-05-19T10:34:01.331Z,38.2
2023-05-19T10:35:15.611Z,37.3
2023-05-19T10:36:28.913Z,38.2
2023-05-19T10:37:43.150Z,37.7
2023-05-19T10:38:57.433Z,34.6
2023-05-19T10:40:11.685Z,36
2023-05-19T10:41:25.902Z,35.4
2023-05-19T10:42:40.133Z,34.2
2023-05-19T10:43:54.359Z,35.4
2023-05-19T10:45:08.671Z,33.9
2023-05-19T10:46:22.900Z,33.8
2023-05-19T10:47:37.146Z,32.6
2023-05-19T10:48:51.358Z,33.1
2023-05-19T10:50:05.600Z,36.6
2023-05-19T10:51:19.896Z,36.6
2023-05-19T10:52:34.131Z,33.1
2023-05-19T10:53:48.356Z,33.2
2023-05-19T10:55:02.589Z,33.4
2023-05-19T10:56:16.812Z,32
2023-05-19T10:57:31.115Z,33.8
2023-05-19T10:58:45.368Z,32.2
2023-05-19T10:59:59.582Z,30.9
2023-05-19T11:01:13.813Z,32
2023-05-19T11:02:28.043Z,31.2
2023-05-19T11:03:42.335Z,32.7
2023-05-19T11:04:56.590Z,38.2
2023-05-19T11:06:10.953Z,36.9
2023-05-19T11:07:25.179Z,39.2
2023-05-19T11:08:39.540Z,41.3
2023-05-19T11:09:53.836Z,41.6
2023-05-19T11:11:08.087Z,42.5
2023-05-19T11:12:22.316Z,43.3
2023-05-19T11:13:36.526Z,40.3
2023-05-19T11:14:50.767Z,40.6
2023-05-19T11:16:05.068Z,36
2023-05-19T11:17:19.295Z,37.2
2023-05-19T11:18:33.000Z,38
2023-05-19T11:19:47.755Z,38.1
2023-05-19T11:21:01.989Z,39.6
2023-05-19T11:22:16.275Z,39.2
2023-05-19T11:23:30.521Z,38.3
2023-05-19T11:24:44.746Z,39.1
2023-05-19T11:25:58.984Z,39
2023-05-19T11:27:13.199Z,40.9
2023-05-19T11:28:27.499Z,40.3
2023-05-19T11:29:41.757Z,40.6
2023-05-19T11:30:55.983Z,40.9
2023-05-19T11:32:10.211Z,39.9
2023-05-19T11:33:24.569Z,39.3
2023-05-19T11:34:38.865Z,39.5
2023-05-19T11:35:53.124Z,38.1
2023-05-19T11:37:07.340Z,38.8
2023-05-19T11:38:21.576Z,37
2023-05-19T11:39:35.795Z,36
2023-05-19T11:40:50.098Z,37.9
2023-05-19T11:42:04.335Z,38.8
2023-05-19T11:43:18.687Z,36.9
2023-05-19T11:44:32.916Z,36
2023-05-19T11:45:47.131Z,38.6
2023-05-19T11:47:01.430Z,39.3
2023-05-19T11:48:15.679Z,39.5
2023-05-19T11:49:29.914Z,38.9
2023-05-19T11:50:44.136Z,38.6
2023-05-19T11:51:58.367Z,38.8
2023-05-19T11:53:12.667Z,37.4
2023-05-19T11:54:26.906Z,39.1
2023-05-19T11:55:41.138Z,41.2
2023-05-19T11:56:55.352Z,43.5
2023-05-19T11:58:09.724Z,42.6
2023-05-19T11:59:24.022Z,44
2023-05-19T12:00:38.273Z,42.9
2023-05-19T12:01:52.506Z,40
2023-05-19T12:03:06.733Z,40.3
2023-05-19T12:04:20.941Z,40.5
2023-05-19T12:05:35.261Z,41.5
2023-05-19T12:06:49.503Z,42.7
2023-05-19T12:08:03.846Z,43.4
2023-05-19T12:09:18.066Z,43
2023-05-19T12:10:32.287Z,39.9
2023-05-19T12:11:46.607Z,38.5
2023-05-19T12:13:00.833Z,37.1
2023-05-19T12:14:15.073Z,37.4
2023-05-19T12:15:29.294Z,36.1
2023-05-19T12:16:43.527Z,34.3
2023-05-19T12:17:57.825Z,32.1
2023-05-19T12:19:12.068Z,32.3
2023-05-19T12:21:40.520Z,33
2023-05-19T12:22:54.738Z,35.1
2023-05-19T12:24:09.043Z,36.6
2023-05-19T12:25:23.285Z,37.2
2023-05-19T12:26:37.521Z,37.8
2023-05-19T12:27:51.730Z,37.8
2023-05-19T12:29:06.107Z,39.3
2023-05-19T12:30:20.417Z,40
2023-05-19T12:31:34.659Z,42.4
2023-05-19T12:32:48.995Z,41.4
2023-05-19T12:34:03.233Z,41.9
2023-05-19T12:35:17.453Z,40.9
2023-05-19T12:36:31.763Z,40.3
2023-05-19T12:37:45.991Z,42.9
2023-05-19T12:39:00.232Z,38.3
2023-05-19T12:40:14.442Z,36.5
2023-05-19T12:41:28.684Z,36.9
2023-05-19T12:42:42.980Z,38.6
2023-05-19T12:43:57.211Z,40.3
2023-05-19T12:45:11.454Z,41
2023-05-19T12:47:39.904Z,41.4
2023-05-19T12:48:54.206Z,41.5
2023-05-19T12:51:22.664Z,41.2
2023-05-19T12:52:37.039Z,40.4
2023-05-19T12:53:51.267Z,40.4
2023-05-19T12:55:05.554Z,40.2
2023-05-19T12:56:19.805Z,39
2023-05-19T12:57:34.038Z,38.5
2023-05-19T12:58:48.267Z,39.6
2023-05-19T13:00:02.481Z,40.5
2023-05-19T13:01:16.779Z,42.4
2023-05-19T13:02:31.020Z,41.4
2023-05-19T13:03:45.257Z,41.3
2023-05-19T13:04:59.629Z,37.8
2023-05-19T13:06:13.853Z,35.9
2023-05-19T13:07:28.149Z,36.5
2023-05-19T13:08:42.391Z,36
2023-05-19T13:09:56.623Z,35.5
2023-05-19T13:11:10.841Z,34.7
2023-05-19T13:12:25.062Z,35.1
2023-05-19T13:13:39.377Z,34.8
2023-05-19T13:14:53.608Z,34.4
2023-05-19T13:16:07.849Z,34.5
2023-05-19T13:17:22.074Z,34.2
2023-05-19T13:18:36.289Z,34.4
2023-05-19T13:19:50.599Z,34.9
2023-05-19T13:21:04.843Z,34.1
2023-05-19T13:22:19.053Z,35.4
2023-05-19T13:23:33.294Z,35.8
2023-05-19T13:24:47.512Z,37
2023-05-19T13:26:01.824Z,36.8
2023-05-19T13:27:16.069Z,37
2023-05-19T13:28:30.278Z,37.2
2023-05-19T13:29:44.504Z,37
2023-05-19T13:30:58.739Z,37.7
2023-05-19T13:32:13.036Z,38.3
2023-05-19T13:33:27.273Z,37.7
2023-05-19T13:34:41.506Z,35.9
2023-05-19T13:35:55.795Z,35.8
2023-05-19T13:37:09.136Z,35.2
2023-05-19T13:38:23.410Z,33.5
2023-05-19T13:39:37.688Z,34.6
2023-05-19T13:40:51.986Z,33
2023-05-19T13:42:05.278Z,32
2023-05-19T13:43:19.515Z,32.3
2023-05-19T13:44:33.739Z,34.9
2023-05-19T13:45:47.963Z,34.8
2023-05-19T13:47:02.191Z,36
2023-05-19T13:48:16.493Z,37.1
2023-05-19T13:49:30.748Z,37.1
2023-05-19T13:50:44.962Z,38.4
2023-05-19T13:51:59.199Z,38.1
2023-05-19T13:53:13.427Z,36.7
2023-05-19T13:54:27.711Z,36.4
2023-05-19T13:55:41.964Z,35.3
2023-05-19T13:56:56.187Z,34.7
2023-05-19T13:58:10.418Z,32.5
2023-05-19T13:59:24.766Z,33
2023-05-19T14:00:39.073Z,34.8
2023-05-19T14:01:53.302Z,33.5
2023-05-19T14:03:07.536Z,34.9
2023-05-19T14:04:21.753Z,36.8
2023-05-19T14:05:35.992Z,36.7
2023-05-19T14:06:50.293Z,37.1
2023-05-19T14:08:04.530Z,37.8
2023-05-19T14:09:18.749Z,38.5
2023-05-19T14:10:33.125Z,38.7
2023-05-19T14:11:47.361Z,39.6
2023-05-19T14:13:01.648Z,38.2
2023-05-19T14:14:15.900Z,36.2
2023-05-19T14:15:30.116Z,35
2023-05-19T14:16:44.354Z,33.6
2023-05-19T14:17:58.574Z,33.9
2023-05-19T14:19:12.881Z,33.1
2023-05-19T14:20:27.116Z,33.9
2023-05-19T14:21:41.334Z,32.9
2023-05-19T14:22:55.567Z,33
2023-05-19T14:24:09.790Z,33
2023-05-19T14:25:24.105Z,35.1
2023-05-19T14:26:38.333Z,35
2023-05-19T14:27:52.563Z,34.7
2023-05-19T14:29:06.786Z,36
2023-05-19T14:30:21.025Z,36.5
2023-05-19T14:31:35.326Z,36.6
2023-05-19T14:32:49.553Z,37.6
2023-05-19T14:34:03.909Z,37.6
2023-05-19T14:35:18.144Z,38.8
2023-05-19T14:36:32.501Z,40.4
2023-05-19T14:37:46.811Z,40.2
2023-05-19T14:39:01.000Z,39.5
2023-05-19T14:40:15.268Z,38.9
2023-05-19T14:41:29.501Z,39.3
2023-05-19T14:42:43.725Z,37.3
2023-05-19T14:43:58.021Z,35.9
2023-05-19T14:45:12.265Z,34.7
2023-05-19T14:46:26.619Z,34.8
2023-05-19T14:47:40.849Z,34.5
2023-05-19T14:48:55.073Z,35.2
2023-05-19T14:50:09.364Z,35.3
2023-05-19T14:51:23.618Z,34.7
2023-05-19T14:52:37.842Z,35.4
2023-05-19T14:53:52.076Z,34.7
2023-05-19T14:55:06.302Z,34
2023-05-19T14:56:20.594Z,33.7
2023-05-19T14:57:34.837Z,33.8
2023-05-19T14:58:49.074Z,33.6
2023-05-19T15:00:03.282Z,35.5
2023-05-19T15:01:17.515Z,35.7
2023-05-19T15:02:31.827Z,37.5
2023-05-19T15:03:46.062Z,39.3
2023-05-19T15:05:00.282Z,38.8
2023-05-19T15:06:14.521Z,38.9
2023-05-19T15:07:28.730Z,39.8
2023-05-19T15:08:43.037Z,40.1
2023-05-19T15:09:57.269Z,40.3
2023-05-19T15:11:11.498Z,40.4
2023-05-19T15:12:25.741Z,39.5
2023-05-19T15:13:40.105Z,37.5
2023-05-19T15:14:54.394Z,37.5
2023-05-19T15:16:08.652Z,38.3
2023-05-19T15:17:22.865Z,36.4
2023-05-19T15:18:37.099Z,36.3
2023-05-19T15:19:51.314Z,34.7
2023-05-19T15:21:05.619Z,34.2
2023-05-19T15:22:19.873Z,35.1
2023-05-19T15:23:34.086Z,36.3
2023-05-19T15:24:48.315Z,35.7
2023-05-19T15:26:02.550Z,35.1
2023-05-19T15:27:16.851Z,37.7
2023-05-19T15:28:31.086Z,37.2
2023-05-19T15:29:45.308Z,36.4
2023-05-19T15:30:59.538Z,34.8
2023-05-19T15:32:13.761Z,34.8
2023-05-19T15:33:28.073Z,36.5
2023-05-19T15:35:56.540Z,38.1
2023-05-19T15:37:10.758Z,37.3
2023-05-19T15:38:24.979Z,38.3
2023-05-19T15:39:39.286Z,38
2023-05-19T15:40:53.525Z,39.2
2023-05-19T15:42:07.913Z,38.4
2023-05-19T15:43:22.281Z,35.8
2023-05-19T15:44:36.506Z,35.4
2023-05-19T15:45:50.802Z,35.7
2023-05-19T15:47:05.034Z,34.8
2023-05-19T15:48:19.382Z,35.2
2023-05-19T15:49:33.614Z,35.8
2023-05-19T15:50:47.836Z,36.6
2023-05-19T15:52:02.133Z,36.5
2023-05-19T15:53:16.375Z,35.6
2023-05-19T15:54:30.608Z,35.9
2023-05-19T15:55:44.832Z,35.2
2023-05-19T15:56:59.072Z,35.3
2023-05-19T15:58:13.356Z,35.3
2023-05-19T15:59:27.603Z,35.2
2023-05-19T16:00:41.820Z,35.8
2023-05-19T16:01:56.054Z,35.9
2023-05-19T16:03:10.292Z,35.2
2023-05-19T16:04:24.575Z,37
2023-05-19T16:05:38.828Z,36
2023-05-19T16:06:53.057Z,36.7
2023-05-19T16:08:07.281Z,37.6
2023-05-19T16:09:21.497Z,39.2
2023-05-19T16:10:35.796Z,39.1
2023-05-19T16:11:50.039Z,40.6
2023-05-19T16:13:04.262Z,39.8
2023-05-19T16:14:18.502Z,38.6
2023-05-19T16:15:32.725Z,38.3
2023-05-19T16:16:47.021Z,37.7
2023-05-19T16:18:01.274Z,37.9
2023-05-19T16:19:15.490Z,37.6
2023-05-19T16:20:29.863Z,36.5
2023-05-19T16:21:44.096Z,35.7
2023-05-19T16:22:58.382Z,36
2023-05-19T16:24:12.632Z,35.8
2023-05-19T16:25:27.001Z,36.3
2023-05-19T16:26:41.219Z,37.3
2023-05-19T16:27:55.451Z,37.5
2023-05-19T16:29:09.748Z,37.2
2023-05-19T16:30:23.987Z,37.5
2023-05-19T16:31:38.210Z,39
2023-05-19T16:32:52.559Z,38
2023-05-19T16:34:06.803Z,39.3
2023-05-19T16:35:21.103Z,40.4
2023-05-19T16:36:35.328Z,40.1
2023-05-19T16:37:49.573Z,40.6
2023-05-19T16:39:03.783Z,39.9
2023-05-19T16:40:18.013Z,40.3
2023-05-19T16:41:32.307Z,39.9
2023-05-19T16:42:46.568Z,39.8
2023-05-19T16:44:00.778Z,40.4
2023-05-19T16:45:15.000Z,40.3
2023-05-19T16:48:57.771Z,41.2